Time;durP1;ratioP1;P1;durP2;ratioP2;P2;SDS_P1;SDS_P2;PMS_P1;PMS_P2;Temp;Humidity;BMP_temperature;BMP_pressure;BME280_temperature;BME280_humidity;BME280_pressure;Samples;Min_cycle;Max_cycle;Signal;HPM_P1;HPM_P2
2023/05/15 00:02:07;;;;;;;6.60;3.90;;;12.00;99.90;;;;;;5075702;28;20445;-67
2023/05/15 00:04:37;;;;;;;4.90;4.03;;;12.00;99.90;;;;;;5074874;28;20438;-67
2023/05/15 00:07:13;;;;;;;6.80;4.43;;;12.00;99.90;;;;;;5075138;28;20483;-67
2023/05/15 00:09:42;;;;;;;9.40;3.93;;;12.00;99.90;;;;;;5075341;28;20500;-67
2023/05/15 00:12:17;;;;;;;5.53;4.07;;;12.00;99.90;;;;;;5075128;28;20489;-67
2023/05/15 00:14:49;;;;;;;5.03;3.60;;;12.00;99.90;;;;;;5075554;28;20189;-67
2023/05/15 00:17:27;;;;;;;15.10;5.03;;;12.00;99.90;;;;;;5074914;28;20442;-66
2023/05/15 00:20:00;;;;;;;5.32;4.25;;;12.00;99.90;;;;;;5075227;28;20475;-67
2023/05/15 00:22:30;;;;;;;4.80;3.50;;;11.90;99.90;;;;;;5074847;28;20185;-66
2023/05/15 00:25:01;;;;;;;8.10;4.70;;;11.90;99.90;;;;;;5075514;28;20451;-67
2023/05/15 00:27:33;;;;;;;7.85;4.97;;;12.00;99.90;;;;;;5074615;28;20522;-67
2023/05/15 00:30:02;;;;;;;4.65;3.65;;;11.90;99.90;;;;;;5075477;28;20270;-67
2023/05/15 00:32:32;;;;;;;7.93;4.40;;;11.90;99.90;;;;;;5075119;28;20555;-67
2023/05/15 00:35:02;;;;;;;6.10;4.33;;;11.90;99.90;;;;;;5075495;28;20186;-67
2023/05/15 00:37:35;;;;;;;6.00;4.40;;;11.90;99.90;;;;;;5074843;28;20428;-67
2023/05/15 00:40:16;;;;;;;7.13;4.70;;;11.90;99.90;;;;;;5075348;28;20462;-67
2023/05/15 00:42:48;;;;;;;5.83;4.30;;;11.90;99.90;;;;;;5074756;28;20511;-67
2023/05/15 00:45:17;;;;;;;6.40;5.47;;;11.90;99.90;;;;;;5075076;28;21474;-66
2023/05/15 00:47:49;;;;;;;5.70;4.20;;;11.90;99.90;;;;;;5074292;28;20447;-67
2023/05/15 00:50:17;;;;;;;7.37;4.63;;;11.90;99.90;;;;;;5074769;28;20446;-67
2023/05/15 00:52:48;;;;;;;7.10;3.90;;;12.00;99.90;;;;;;5074699;28;20468;-67
2023/05/15 00:55:42;;;;;;;5.85;4.10;;;12.00;99.90;;;;;;5074613;28;20531;-67
2023/05/15 00:58:23;;;;;;;4.83;3.87;;;12.00;99.90;;;;;;5074033;28;20185;-66
2023/05/15 01:00:58;;;;;;;4.90;4.00;;;12.00;99.90;;;;;;5074654;28;20471;-66
2023/05/15 01:03:28;;;;;;;12.80;3.30;;;12.00;99.90;;;;;;5074401;28;20275;-67
2023/05/15 01:05:56;;;;;;;5.82;4.22;;;12.00;99.90;;;;;;5074419;28;20483;-67
2023/05/15 01:08:38;;;;;;;4.60;3.80;;;12.00;99.90;;;;;;5073839;28;20215;-67
2023/05/15 01:11:09;;;;;;;8.17;4.13;;;12.00;99.90;;;;;;5074277;28;20194;-66
2023/05/15 01:13:39;;;;;;;5.95;4.00;;;12.00;99.90;;;;;;5074570;28;20451;-67
2023/05/15 01:16:11;;;;;;;5.00;3.80;;;12.00;99.90;;;;;;5073795;28;20200;-66
2023/05/15 01:18:40;;;;;;;5.50;4.50;;;12.10;99.90;;;;;;5074148;28;20468;-67
2023/05/15 01:21:56;;;;;;;6.17;4.27;;;12.10;99.90;;;;;;5073920;28;20470;-67
2023/05/15 01:24:42;;;;;;;4.10;3.33;;;12.10;99.90;;;;;;5074349;28;20783;-66
2023/05/15 01:27:19;;;;;;;5.20;4.17;;;12.10;99.90;;;;;;5073356;28;20479;-66
2023/05/15 01:29:59;;;;;;;7.10;4.50;;;12.10;99.90;;;;;;5074250;28;20440;-67
2023/05/15 01:32:33;;;;;;;10.10;4.75;;;12.10;99.90;;;;;;5073878;28;20524;-66
2023/05/15 01:35:10;;;;;;;5.40;4.30;;;12.10;99.90;;;;;;5074123;28;20669;-67
2023/05/15 01:37:45;;;;;;;7.40;5.07;;;12.10;99.90;;;;;;5072419;28;20525;-66
2023/05/15 01:40:16;;;;;;;6.80;4.47;;;12.10;99.90;;;;;;5073321;28;20497;-67
2023/05/15 01:42:52;;;;;;;5.90;4.13;;;12.10;99.90;;;;;;5074070;28;20447;-66
2023/05/15 01:45:23;;;;;;;8.37;5.27;;;12.10;99.90;;;;;;5073455;28;20451;-66
2023/05/15 01:47:53;;;;;;;6.87;4.57;;;12.00;99.90;;;;;;5073855;28;20438;-67
2023/05/15 01:50:21;;;;;;;7.33;5.30;;;12.00;99.90;;;;;;5073013;28;20438;-67
2023/05/15 01:52:54;;;;;;;6.00;4.73;;;12.00;99.90;;;;;;5073608;28;20443;-67
2023/05/15 01:55:23;;;;;;;7.23;5.00;;;12.00;99.90;;;;;;5073526;28;20919;-67
2023/05/15 01:57:53;;;;;;;5.50;4.00;;;12.00;99.90;;;;;;5073622;28;20439;-67
2023/05/15 02:00:26;;;;;;;6.20;4.90;;;12.00;99.90;;;;;;5073203;28;20475;-67
2023/05/15 02:02:56;;;;;;;8.43;6.03;;;12.00;99.90;;;;;;5073532;28;20443;-67
2023/05/15 02:05:25;;;;;;;6.50;4.60;;;12.00;99.90;;;;;;5073282;28;20471;-67
2023/05/15 02:07:53;;;;;;;6.30;5.20;;;12.00;99.90;;;;;;5073493;28;20950;-67
2023/05/15 02:10:25;;;;;;;7.95;5.20;;;11.90;99.90;;;;;;5073068;28;20432;-67
2023/05/15 02:12:56;;;;;;;5.70;4.60;;;11.90;99.90;;;;;;5073162;28;20186;-67
2023/05/15 02:15:26;;;;;;;10.50;6.67;;;11.80;99.90;;;;;;5073112;28;20983;-67
2023/05/15 02:17:56;;;;;;;7.85;6.07;;;11.90;99.90;;;;;;5072933;28;20822;-67
2023/05/15 02:20:26;;;;;;;6.97;6.13;;;11.90;99.90;;;;;;5070851;28;20193;-67
2023/05/15 02:22:59;;;;;;;7.27;5.80;;;11.80;99.90;;;;;;5072732;28;20794;-67
2023/05/15 02:25:37;;;;;;;7.05;5.80;;;11.80;99.90;;;;;;5070338;28;20440;-67
2023/05/15 02:28:10;;;;;;;7.23;6.50;;;11.80;99.90;;;;;;5072774;28;20217;-67
2023/05/15 02:30:45;;;;;;;6.90;5.27;;;11.80;99.90;;;;;;5071815;28;20436;-67
2023/05/15 02:33:30;;;;;;;8.55;6.85;;;11.80;99.90;;;;;;5073156;28;20517;-67
2023/05/15 02:36:05;;;;;;;8.35;6.25;;;11.80;99.90;;;;;;5071865;28;20280;-67
2023/05/15 02:38:39;;;;;;;5.55;4.75;;;11.70;99.90;;;;;;5073117;28;20224;-67
2023/05/15 02:41:08;;;;;;;6.78;4.63;;;11.70;99.90;;;;;;5072372;28;20601;-66
2023/05/15 02:43:41;;;;;;;5.68;4.50;;;11.70;99.90;;;;;;5072956;28;20196;-67
2023/05/15 02:46:08;;;;;;;9.43;4.43;;;11.70;99.90;;;;;;5072184;28;20220;-66
2023/05/15 02:48:39;;;;;;;5.13;4.10;;;11.70;99.90;;;;;;5072679;28;20548;-67
2023/05/15 02:51:08;;;;;;;4.97;3.80;;;11.70;99.90;;;;;;5072497;28;20190;-67
2023/05/15 02:53:40;;;;;;;6.35;5.30;;;11.70;99.90;;;;;;5072680;28;20197;-67
2023/05/15 02:56:11;;;;;;;5.47;4.20;;;11.70;99.90;;;;;;5072548;28;20193;-67
2023/05/15 02:58:41;;;;;;;4.50;3.43;;;11.60;99.90;;;;;;5072201;28;20579;-67
2023/05/15 03:01:09;;;;;;;8.27;4.23;;;11.70;99.90;;;;;;5072584;28;20794;-67
2023/05/15 03:03:36;;;;;;;8.20;5.20;;;11.70;99.90;;;;;;5071616;28;20531;-67
2023/05/15 03:06:04;;;;;;;4.25;3.40;;;11.70;99.90;;;;;;5072257;28;20244;-67
2023/05/15 03:08:31;;;;;;;6.80;4.20;;;11.70;99.90;;;;;;5072424;28;20185;-67
2023/05/15 03:11:02;;;;;;;5.10;4.30;;;11.60;99.90;;;;;;5072471;28;20821;-67
2023/05/15 03:13:32;;;;;;;5.78;4.07;;;11.60;99.90;;;;;;5072117;28;20813;-67
2023/05/15 03:16:02;;;;;;;5.00;3.90;;;11.60;99.90;;;;;;5072680;28;20178;-67
2023/05/15 03:18:34;;;;;;;6.18;4.82;;;11.60;99.90;;;;;;5071510;28;20985;-67
2023/05/15 03:21:07;;;;;;;6.30;4.63;;;11.70;99.90;;;;;;5072491;28;20190;-67
2023/05/15 03:23:35;;;;;;;9.10;5.00;;;11.70;99.90;;;;;;5071481;28;20463;-66
2023/05/15 03:26:06;;;;;;;5.82;4.82;;;11.70;99.90;;;;;;5072175;28;20563;-67
2023/05/15 03:28:36;;;;;;;4.87;3.80;;;11.70;99.90;;;;;;5072153;28;20220;-67
2023/05/15 03:31:07;;;;;;;8.27;5.10;;;11.70;99.90;;;;;;5072402;28;20432;-67
2023/05/15 03:33:36;;;;;;;5.60;4.93;;;11.70;99.90;;;;;;5075556;28;20442;-67
2023/05/15 03:36:07;;;;;;;16.23;5.90;;;11.70;99.90;;;;;;5075907;28;20550;-67
2023/05/15 03:38:36;;;;;;;8.10;5.57;;;11.80;99.90;;;;;;5076250;28;20944;-66
2023/05/15 03:41:04;;;;;;;6.37;5.13;;;11.80;99.90;;;;;;5075668;28;20514;-66
2023/05/15 03:43:33;;;;;;;6.95;4.93;;;11.80;99.90;;;;;;5076119;28;20439;-67
2023/05/15 03:46:00;;;;;;;6.90;5.50;;;11.80;99.90;;;;;;5074405;28;20189;-68
2023/05/15 03:48:34;;;;;;;8.53;5.30;;;11.90;99.90;;;;;;5075867;28;20541;-67
2023/05/15 03:51:03;;;;;;;7.30;5.30;;;11.90;99.90;;;;;;5075447;28;20771;-67
2023/05/15 03:53:31;;;;;;;6.53;4.85;;;11.90;99.90;;;;;;5075940;28;20439;-66
2023/05/15 03:56:05;;;;;;;5.90;4.60;;;11.90;99.90;;;;;;5075682;28;20189;-67
2023/05/15 03:58:32;;;;;;;8.95;6.47;;;11.90;99.90;;;;;;5056021;28;20445;-66
2023/05/15 04:01:00;;;;;;;7.10;5.70;;;11.90;99.90;;;;;;5062827;28;20221;-67
2023/05/15 04:03:32;;;;;;;6.60;5.67;;;11.90;99.90;;;;;;5075840;28;20451;-66
2023/05/15 04:06:04;;;;;;;5.80;4.60;;;11.90;99.90;;;;;;5074812;28;20981;-67
2023/05/15 04:08:39;;;;;;;6.83;5.20;;;11.90;99.90;;;;;;5075806;28;20436;-67
2023/05/15 04:11:06;;;;;;;6.60;4.33;;;11.90;99.90;;;;;;5074924;28;20856;-67
2023/05/15 04:13:37;;;;;;;6.47;4.93;;;12.00;99.90;;;;;;5075671;28;20446;-67
2023/05/15 04:16:06;;;;;;;5.65;4.78;;;12.00;99.90;;;;;;5074260;28;20440;-67
2023/05/15 04:18:38;;;;;;;5.43;4.20;;;11.90;99.90;;;;;;5074712;28;20228;-67
2023/05/15 04:21:08;;;;;;;6.23;5.07;;;11.90;99.90;;;;;;5074948;28;20439;-67
2023/05/15 04:23:40;;;;;;;6.50;5.00;;;12.00;99.90;;;;;;5075183;28;20440;-67
2023/05/15 04:26:08;;;;;;;5.70;4.50;;;12.00;99.90;;;;;;5074666;28;20440;-66
2023/05/15 04:28:40;;;;;;;6.00;5.00;;;12.00;99.90;;;;;;5075040;28;20436;-67
2023/05/15 04:31:11;;;;;;;5.57;4.60;;;12.00;99.90;;;;;;5073156;28;20440;-66
2023/05/15 04:33:41;;;;;;;6.30;4.60;;;12.00;99.90;;;;;;5074772;28;20440;-67
2023/05/15 04:36:12;;;;;;;7.33;5.03;;;12.00;99.90;;;;;;5074750;28;20869;-66
2023/05/15 04:38:41;;;;;;;4.80;4.30;;;12.00;99.90;;;;;;5075176;28;20519;-67
2023/05/15 04:41:13;;;;;;;5.57;4.57;;;12.00;99.90;;;;;;5074581;28;20822;-67
2023/05/15 04:43:43;;;;;;;6.13;4.73;;;12.10;99.90;;;;;;5074040;28;20844;-66
2023/05/15 04:46:14;;;;;;;6.10;4.77;;;12.10;99.90;;;;;;5074865;28;20440;-66
2023/05/15 04:48:43;;;;;;;6.50;4.90;;;12.10;99.90;;;;;;5067333;28;20443;-67
2023/05/15 04:51:14;;;;;;;5.70;4.30;;;12.10;99.90;;;;;;5073451;28;20439;-67
2023/05/15 04:53:45;;;;;;;5.20;4.13;;;12.10;99.90;;;;;;5089789;28;20431;-67
2023/05/15 04:56:16;;;;;;;5.57;4.00;;;12.20;99.90;;;;;;5074700;28;20440;-67
2023/05/15 04:58:44;;;;;;;6.90;4.90;;;12.20;99.90;;;;;;5078465;28;20530;-67
2023/05/15 05:01:17;;;;;;;7.60;4.53;;;12.20;99.90;;;;;;5079092;28;20954;-67
2023/05/15 05:03:46;;;;;;;5.40;4.03;;;12.30;99.90;;;;;;5084164;28;20449;-67
2023/05/15 05:06:18;;;;;;;4.80;3.80;;;12.30;99.90;;;;;;5072490;28;20693;-67
2023/05/15 05:08:48;;;;;;;7.60;4.97;;;12.30;99.90;;;;;;5087823;28;20911;-68
2023/05/15 05:11:17;;;;;;;7.53;4.23;;;12.30;99.90;;;;;;5069119;28;20659;-67
2023/05/15 05:13:47;;;;;;;6.60;5.97;;;12.30;99.90;;;;;;5073907;28;20459;-67
2023/05/15 05:16:16;;;;;;;9.27;6.63;;;12.40;99.90;;;;;;5077929;28;20432;-67
2023/05/15 05:18:55;;;;;;;7.70;6.07;;;12.40;99.90;;;;;;5066811;28;20480;-67
2023/05/15 05:21:22;;;;;;;6.27;4.83;;;12.50;99.90;;;;;;5071582;28;20810;-67
2023/05/15 05:26:34;;;;;;;6.70;4.07;;;12.50;99.90;;;;;;5090686;28;20801;-67
2023/05/15 05:29:06;;;;;;;4.50;3.60;;;12.60;99.90;;;;;;5084830;28;20799;-67
2023/05/15 05:31:39;;;;;;;5.70;3.60;;;12.70;99.90;;;;;;5070701;28;20440;-67
2023/05/15 05:34:14;;;;;;;5.83;4.17;;;12.70;99.90;;;;;;5070772;28;20444;-67
2023/05/15 05:36:44;;;;;;;6.40;4.10;;;12.80;99.90;;;;;;5069238;28;20442;-67
2023/05/15 05:39:15;;;;;;;5.27;3.80;;;12.90;99.90;;;;;;5080159;28;20443;-66
2023/05/15 05:41:43;;;;;;;5.40;3.87;;;12.90;99.90;;;;;;5087816;28;20777;-67
2023/05/15 05:44:13;;;;;;;5.93;4.13;;;13.00;99.90;;;;;;5084456;28;20434;-67
2023/05/15 05:46:40;;;;;;;5.57;4.90;;;13.10;99.90;;;;;;5072622;28;20436;-67
2023/05/15 05:49:13;;;;;;;8.20;5.00;;;13.20;99.90;;;;;;5070587;28;20640;-67
2023/05/15 05:51:41;;;;;;;5.90;5.30;;;13.40;99.90;;;;;;5073026;28;20450;-67
2023/05/15 05:54:08;;;;;;;6.37;5.13;;;13.50;99.90;;;;;;5072198;28;20436;-67
2023/05/15 05:56:35;;;;;;;8.40;5.50;;;13.60;99.90;;;;;;5072574;28;20450;-67
2023/05/15 05:59:02;;;;;;;6.87;5.33;;;13.70;99.90;;;;;;5072185;28;20515;-68
2023/05/15 06:01:30;;;;;;;6.70;4.87;;;13.80;99.90;;;;;;5072704;28;20471;-67
2023/05/15 06:03:57;;;;;;;6.80;5.10;;;13.90;99.60;;;;;;5073140;28;20526;-67
2023/05/15 06:06:26;;;;;;;6.30;5.60;;;14.00;99.20;;;;;;5072880;28;20444;-67
2023/05/15 06:08:59;;;;;;;7.70;4.77;;;14.10;99.50;;;;;;5072485;28;20502;-67
2023/05/15 06:11:26;;;;;;;7.80;4.40;;;14.20;99.60;;;;;;5072471;28;20443;-67
2023/05/15 06:13:54;;;;;;;5.40;4.70;;;14.30;96.60;;;;;;5048482;28;20802;-67
2023/05/15 06:16:33;;;;;;;7.10;5.63;;;14.20;96.80;;;;;;5123085;27;20536;-68
2023/05/15 06:19:08;;;;;;;5.13;4.13;;;14.30;97.20;;;;;;5100596;28;20454;-68
2023/05/15 06:21:35;;;;;;;9.10;4.80;;;14.30;98.00;;;;;;5074568;28;20466;-68
2023/05/15 06:24:02;;;;;;;6.30;4.80;;;14.40;97.40;;;;;;5073298;28;20449;-67
2023/05/15 06:26:32;;;;;;;6.63;4.77;;;14.40;97.00;;;;;;5114446;27;20496;-68
2023/05/15 06:29:04;;;;;;;8.40;4.87;;;14.40;96.70;;;;;;5091022;28;20840;-68
2023/05/15 06:31:33;;;;;;;7.20;6.00;;;14.60;96.70;;;;;;5107878;27;20453;-68
2023/05/15 06:34:01;;;;;;;7.00;6.30;;;14.70;96.60;;;;;;5088074;28;20512;-67
2023/05/15 06:36:29;;;;;;;7.77;5.90;;;14.80;96.40;;;;;;5088319;28;20462;-68
2023/05/15 06:38:58;;;;;;;6.20;4.57;;;14.90;97.10;;;;;;5090023;28;20439;-68
2023/05/15 06:41:26;;;;;;;5.93;5.23;;;15.00;96.70;;;;;;5088312;28;20469;-68
2023/05/15 06:43:53;;;;;;;6.77;4.93;;;15.10;95.90;;;;;;5085981;28;20930;-68
2023/05/15 06:46:21;;;;;;;6.80;4.73;;;15.20;95.30;;;;;;5094232;28;20469;-67
2023/05/15 06:48:54;;;;;;;7.27;4.40;;;15.20;94.50;;;;;;5101531;28;20442;-67
2023/05/15 06:51:24;;;;;;;6.43;4.10;;;15.30;95.30;;;;;;5091855;27;21030;-68
2023/05/15 06:53:53;;;;;;;6.40;5.40;;;15.40;95.60;;;;;;5099491;27;20438;-68
2023/05/15 06:56:22;;;;;;;7.03;6.00;;;15.50;94.30;;;;;;5094884;27;20553;-67
2023/05/15 06:58:50;;;;;;;8.97;5.90;;;15.60;94.10;;;;;;5097746;27;20442;-68
2023/05/15 07:01:17;;;;;;;6.33;4.33;;;15.70;94.70;;;;;;5106731;28;20439;-68
2023/05/15 07:03:44;;;;;;;6.10;4.13;;;15.80;93.30;;;;;;5109856;28;20434;-67
2023/05/15 07:06:13;;;;;;;6.53;4.40;;;16.00;93.90;;;;;;5108951;28;20442;-67
2023/05/15 07:08:40;;;;;;;7.50;5.20;;;16.20;94.60;;;;;;5109739;28;20442;-68
2023/05/15 07:11:07;;;;;;;6.17;4.27;;;16.30;94.40;;;;;;5109517;28;20441;-68
2023/05/15 07:13:34;;;;;;;6.47;4.70;;;16.30;91.80;;;;;;5109481;28;20442;-67
2023/05/15 07:16:02;;;;;;;6.13;5.43;;;16.20;91.00;;;;;;5109629;28;20486;-67
2023/05/15 07:18:29;;;;;;;6.13;4.27;;;16.30;91.70;;;;;;5109635;28;20445;-67
2023/05/15 07:20:58;;;;;;;6.10;4.70;;;16.40;92.10;;;;;;5109663;28;20457;-67
2023/05/15 07:23:26;;;;;;;6.40;4.40;;;16.50;92.00;;;;;;5109985;28;20518;-67
2023/05/15 07:25:54;;;;;;;5.63;4.03;;;16.70;91.20;;;;;;5107285;28;20508;-67
2023/05/15 07:28:22;;;;;;;5.80;4.43;;;16.70;90.90;;;;;;5095902;28;20435;-67
2023/05/15 07:30:49;;;;;;;6.67;4.77;;;16.70;90.50;;;;;;5095205;28;20537;-67
2023/05/15 07:33:16;;;;;;;6.50;5.23;;;16.70;89.80;;;;;;5095590;28;20454;-67
2023/05/15 07:35:43;;;;;;;6.60;5.17;;;16.70;89.20;;;;;;5095479;28;20483;-67
2023/05/15 07:38:11;;;;;;;6.70;4.33;;;16.70;88.80;;;;;;5095198;28;20439;-68
2023/05/15 07:40:39;;;;;;;5.67;4.50;;;16.70;89.90;;;;;;5095624;28;20485;-67
2023/05/15 07:43:06;;;;;;;6.13;4.60;;;16.70;90.20;;;;;;5095276;28;20435;-67
2023/05/15 07:45:34;;;;;;;5.23;4.20;;;16.80;89.60;;;;;;5095609;28;20787;-67
2023/05/15 07:48:18;;;;;;;7.27;5.53;;;16.70;87.30;;;;;;5091250;28;20952;-68
2023/05/15 07:50:49;;;;;;;6.23;5.10;;;16.60;87.10;;;;;;5073454;28;20577;-67
2023/05/15 07:53:18;;;;;;;6.30;4.90;;;16.50;88.10;;;;;;5075245;28;20452;-67
2023/05/15 07:55:47;;;;;;;5.87;4.80;;;16.40;88.60;;;;;;5075057;28;20569;-68
2023/05/15 07:58:14;;;;;;;7.20;4.97;;;16.20;89.60;;;;;;5074929;28;20436;-68
2023/05/15 08:00:41;;;;;;;8.87;6.60;;;16.10;90.40;;;;;;5074961;28;20982;-67
2023/05/15 08:03:08;;;;;;;7.77;5.47;;;16.00;90.60;;;;;;5074783;28;20490;-67
2023/05/15 08:05:35;;;;;;;10.33;5.97;;;15.80;90.90;;;;;;5074706;28;20820;-67
2023/05/15 08:08:02;;;;;;;9.03;5.50;;;15.60;91.60;;;;;;5074970;28;20479;-67
2023/05/15 08:10:29;;;;;;;9.57;4.33;;;15.40;92.00;;;;;;5074736;28;20793;-67
2023/05/15 08:12:57;;;;;;;3.87;2.80;;;15.10;91.80;;;;;;5074304;28;21016;-67
2023/05/15 08:15:24;;;;;;;3.90;2.87;;;14.90;91.40;;;;;;5074661;28;20495;-67
2023/05/15 08:17:51;;;;;;;4.53;2.47;;;14.70;90.70;;;;;;5074766;28;20467;-67
2023/05/15 08:20:18;;;;;;;4.50;3.23;;;14.50;90.60;;;;;;5074405;28;20436;-67
2023/05/15 08:22:45;;;;;;;9.90;3.50;;;14.30;90.80;;;;;;5074634;28;20514;-67
2023/05/15 08:25:12;;;;;;;7.97;3.23;;;14.20;91.50;;;;;;5074531;28;20444;-67
2023/05/15 08:27:39;;;;;;;4.67;3.47;;;14.00;91.80;;;;;;5078828;28;20442;-67
2023/05/15 08:30:09;;;;;;;4.13;3.17;;;13.90;91.90;;;;;;5094807;28;20435;-67
2023/05/15 08:32:36;;;;;;;4.70;2.90;;;13.70;92.30;;;;;;5094570;28;20481;-67
2023/05/15 08:35:03;;;;;;;7.40;3.47;;;13.60;92.50;;;;;;5093970;28;20471;-68
2023/05/15 08:37:32;;;;;;;7.63;3.50;;;13.50;92.50;;;;;;5094096;28;20443;-67
2023/05/15 08:39:59;;;;;;;5.73;3.93;;;13.50;92.90;;;;;;5094136;28;20866;-67
2023/05/15 08:42:32;;;;;;;4.80;3.27;;;13.40;93.30;;;;;;5094461;28;20497;-67
2023/05/15 08:45:01;;;;;;;6.83;2.90;;;13.30;93.30;;;;;;5094285;28;20471;-67
2023/05/15 08:47:32;;;;;;;4.20;2.70;;;13.30;93.00;;;;;;5094183;28;20500;-67
2023/05/15 08:50:05;;;;;;;4.30;3.03;;;13.20;93.30;;;;;;5094253;28;20842;-67
2023/05/15 08:52:33;;;;;;;3.90;2.90;;;13.20;93.90;;;;;;5094224;28;20435;-67
2023/05/15 08:55:01;;;;;;;3.87;2.50;;;13.20;94.50;;;;;;5093912;28;20481;-67
2023/05/15 08:57:30;;;;;;;4.40;3.60;;;13.30;94.70;;;;;;5094240;28;20870;-67
2023/05/15 08:59:57;;;;;;;8.33;3.70;;;13.30;95.40;;;;;;5093950;28;20930;-67
2023/05/15 09:02:25;;;;;;;4.87;2.97;;;13.40;94.70;;;;;;5091685;28;20445;-67
2023/05/15 09:04:54;;;;;;;3.80;2.90;;;13.50;94.50;;;;;;5091510;28;20999;-68
2023/05/15 09:07:21;;;;;;;4.70;3.40;;;13.50;94.40;;;;;;5088868;28;20858;-67
2023/05/15 09:09:50;;;;;;;6.23;4.90;;;13.40;94.40;;;;;;5089228;28;20447;-68
2023/05/15 09:12:17;;;;;;;5.13;4.20;;;13.30;94.30;;;;;;5086466;28;20733;-67
2023/05/15 09:14:45;;;;;;;16.60;3.77;;;13.20;94.30;;;;;;5085006;28;20463;-67
2023/05/15 09:17:12;;;;;;;4.27;3.03;;;13.10;95.00;;;;;;5088375;28;20490;-67
2023/05/15 09:19:40;;;;;;;6.20;3.90;;;13.00;94.70;;;;;;5088837;28;20840;-67
2023/05/15 09:22:22;;;;;;;5.53;4.10;;;12.90;94.90;;;;;;5088201;28;20930;-67
2023/05/15 09:24:51;;;;;;;5.50;4.17;;;12.80;95.30;;;;;;5084960;28;20435;-67
2023/05/15 09:27:19;;;;;;;6.80;4.77;;;12.80;95.30;;;;;;5085492;28;20439;-67
2023/05/15 09:29:47;;;;;;;12.83;5.73;;;12.80;95.70;;;;;;5088246;28;20494;-67
2023/05/15 09:32:15;;;;;;;7.23;4.37;;;12.80;96.10;;;;;;5085979;28;20831;-67
2023/05/15 09:34:43;;;;;;;9.77;5.57;;;12.90;96.20;;;;;;5088696;28;20835;-67
2023/05/15 09:37:30;;;;;;;8.10;5.70;;;13.00;96.10;;;;;;5086080;28;20569;-67
2023/05/15 09:40:09;;;;;;;9.00;4.70;;;13.20;95.90;;;;;;5085063;28;20481;-68
2023/05/15 09:42:37;;;;;;;15.30;6.83;;;13.40;95.80;;;;;;5086850;28;20443;-67
2023/05/15 09:45:05;;;;;;;9.90;5.37;;;13.70;95.60;;;;;;5086235;28;20447;-67
2023/05/15 09:47:38;;;;;;;6.43;4.57;;;13.90;95.20;;;;;;5088469;28;20921;-67
2023/05/15 09:50:09;;;;;;;8.20;4.03;;;14.10;94.50;;;;;;5088191;28;20500;-67
2023/05/15 09:52:36;;;;;;;4.43;3.40;;;14.30;94.80;;;;;;5086215;28;20886;-67
2023/05/15 09:55:06;;;;;;;9.27;4.77;;;14.60;93.00;;;;;;5087801;28;20431;-67
2023/05/15 09:57:32;;;;;;;6.30;4.30;;;14.80;93.40;;;;;;5088217;28;20508;-67
2023/05/15 10:00:04;;;;;;;5.07;4.03;;;15.10;93.60;;;;;;5088093;28;20492;-67
2023/05/15 10:02:31;;;;;;;7.13;4.70;;;15.60;94.00;;;;;;5085854;28;20440;-67
2023/05/15 10:04:59;;;;;;;6.17;3.90;;;16.30;94.00;;;;;;5087860;28;20450;-67
2023/05/15 10:07:31;;;;;;;5.23;3.33;;;16.80;90.90;;;;;;5084778;28;20936;-67
2023/05/15 10:09:58;;;;;;;4.77;3.47;;;17.50;91.70;;;;;;5084441;28;20467;-68
2023/05/15 10:12:28;;;;;;;4.17;3.03;;;18.30;92.60;;;;;;5088106;28;20474;-67
2023/05/15 10:14:57;;;;;;;3.90;2.37;;;19.00;90.50;;;;;;5084222;28;20631;-67
2023/05/15 10:17:25;;;;;;;6.87;2.90;;;19.70;84.30;;;;;;5083967;28;20479;-67
2023/05/15 10:19:52;;;;;;;3.50;2.50;;;20.40;85.70;;;;;;5083945;28;20443;-68
2023/05/15 10:22:22;;;;;;;7.80;2.67;;;21.10;79.60;;;;;;5084623;28;20905;-68
2023/05/15 10:25:00;;;;;;;3.53;2.70;;;21.60;77.30;;;;;;5086952;28;20509;-68
2023/05/15 10:27:30;;;;;;;3.70;2.50;;;22.10;68.00;;;;;;5084130;28;20445;-68
2023/05/15 10:29:58;;;;;;;3.10;2.30;;;22.20;64.70;;;;;;5083953;28;20557;-68
2023/05/15 10:32:26;;;;;;;3.50;2.40;;;22.20;62.70;;;;;;5081858;28;20478;-68
2023/05/15 10:34:54;;;;;;;3.77;2.40;;;21.90;63.10;;;;;;5088061;28;20467;-68
2023/05/15 10:37:22;;;;;;;3.63;2.50;;;21.80;63.30;;;;;;5083703;28;20475;-68
2023/05/15 10:39:50;;;;;;;3.73;2.40;;;21.50;61.80;;;;;;5086949;28;20444;-68
2023/05/15 10:42:21;;;;;;;3.47;2.70;;;21.20;62.20;;;;;;5087278;28;20435;-68
2023/05/15 10:44:50;;;;;;;7.93;6.07;;;21.00;64.30;;;;;;5086898;28;20447;-68
2023/05/15 10:47:17;;;;;;;4.00;3.00;;;20.90;68.40;;;;;;5085602;28;20797;-67
2023/05/15 10:49:46;;;;;;;2.83;1.87;;;20.80;69.80;;;;;;5085577;28;20522;-68
2023/05/15 10:52:13;;;;;;;3.80;2.23;;;20.60;70.30;;;;;;5086429;28;20440;-67
2023/05/15 10:54:40;;;;;;;4.00;2.37;;;20.40;69.50;;;;;;5086889;28;20447;-68
2023/05/15 10:57:08;;;;;;;2.87;2.03;;;20.40;68.40;;;;;;5086106;28;20518;-68
2023/05/15 10:59:35;;;;;;;3.13;2.23;;;20.50;66.10;;;;;;5080761;28;20988;-68
2023/05/15 11:02:24;;;;;;;3.07;2.27;;;20.50;65.80;;;;;;5088048;28;20790;-68
2023/05/15 11:04:56;;;;;;;3.43;2.10;;;20.60;68.40;;;;;;5087864;28;20435;-68
2023/05/15 11:07:24;;;;;;;3.70;2.83;;;20.70;68.70;;;;;;5090341;28;20500;-68
2023/05/15 11:09:52;;;;;;;4.03;2.63;;;20.60;62.50;;;;;;5090756;28;20442;-68
2023/05/15 11:12:19;;;;;;;3.87;2.30;;;20.40;64.50;;;;;;5082489;28;20435;-68
2023/05/15 11:15:20;;;;;;;3.20;2.17;;;20.30;65.10;;;;;;5089253;28;20495;-68
2023/05/15 11:18:05;;;;;;;3.20;2.17;;;20.00;62.70;;;;;;5087339;28;20906;-67
2023/05/15 11:20:39;;;;;;;3.10;2.20;;;19.70;65.40;;;;;;5090740;28;20487;-68
2023/05/15 11:23:06;;;;;;;4.10;2.63;;;19.50;64.60;;;;;;5087981;28;20449;-68
2023/05/15 11:25:35;;;;;;;4.10;2.87;;;19.40;64.70;;;;;;5091039;28;20447;-68
2023/05/15 11:28:04;;;;;;;5.00;1.90;;;19.40;65.80;;;;;;5087738;28;20482;-68
2023/05/15 11:30:38;;;;;;;3.80;2.30;;;19.70;63.50;;;;;;5091757;28;20465;-68
2023/05/15 11:33:10;;;;;;;3.87;2.43;;;20.10;62.10;;;;;;5090421;28;20430;-68
2023/05/15 11:35:40;;;;;;;2.90;2.03;;;20.40;61.50;;;;;;5090755;28;20443;-68
2023/05/15 11:38:12;;;;;;;4.77;2.20;;;20.70;58.20;;;;;;5090625;28;20442;-68
2023/05/15 11:40:48;;;;;;;3.67;2.60;;;21.10;58.60;;;;;;5083691;28;20505;-68
2023/05/15 11:43:19;;;;;;;3.17;1.90;;;21.50;56.20;;;;;;5089142;28;20447;-68
2023/05/15 11:45:48;;;;;;;3.20;1.90;;;21.60;57.00;;;;;;5090488;28;20443;-68
2023/05/15 11:48:17;;;;;;;3.40;2.70;;;21.70;57.40;;;;;;5086834;28;20802;-68
2023/05/15 11:50:45;;;;;;;4.17;2.93;;;21.80;58.40;;;;;;5090385;28;20442;-68
2023/05/15 11:53:12;;;;;;;3.20;2.30;;;21.50;57.30;;;;;;5086537;28;20439;-68
2023/05/15 11:55:41;;;;;;;3.33;2.20;;;21.30;58.00;;;;;;5090036;28;20431;-68
2023/05/15 11:58:14;;;;;;;3.27;2.53;;;21.10;58.80;;;;;;5085353;28;20487;-67
2023/05/15 12:00:41;;;;;;;4.50;2.53;;;21.00;57.20;;;;;;5086376;28;20539;-68
2023/05/15 12:03:16;;;;;;;6.30;3.30;;;20.80;57.80;;;;;;5089292;28;20505;-68
2023/05/15 12:05:44;;;;;;;4.00;2.20;;;20.30;57.70;;;;;;5092148;28;20521;-68
2023/05/15 12:08:11;;;;;;;3.17;2.40;;;20.20;59.30;;;;;;5088677;28;20451;-68
2023/05/15 12:10:42;;;;;;;3.47;2.40;;;20.00;59.70;;;;;;5088141;28;20483;-67
2023/05/15 12:13:10;;;;;;;3.40;2.40;;;19.90;59.60;;;;;;5088118;28;20446;-68
2023/05/15 12:15:39;;;;;;;4.20;2.43;;;19.90;59.00;;;;;;5089968;28;21017;-68
2023/05/15 12:18:07;;;;;;;3.37;2.50;;;19.90;59.50;;;;;;5089500;28;20981;-68
2023/05/15 12:20:37;;;;;;;3.23;2.17;;;20.00;60.10;;;;;;5089480;28;20474;-68
2023/05/15 12:23:07;;;;;;;3.20;2.33;;;20.20;62.90;;;;;;5089740;28;20902;-68
2023/05/15 12:25:36;;;;;;;5.53;2.43;;;20.40;61.40;;;;;;5089021;28;20431;-68
2023/05/15 12:28:04;;;;;;;4.33;2.33;;;20.40;64.80;;;;;;5086875;28;20541;-68
2023/05/15 12:30:32;;;;;;;4.13;2.87;;;20.30;66.00;;;;;;5088054;28;20473;-68
2023/05/15 12:33:02;;;;;;;4.70;3.53;;;20.00;65.80;;;;;;5089581;28;20439;-68
2023/05/15 12:35:30;;;;;;;7.90;3.87;;;19.60;66.80;;;;;;5086487;28;20566;-68
2023/05/15 12:37:58;;;;;;;7.30;3.40;;;19.30;69.00;;;;;;5089432;28;20490;-68
2023/05/15 12:40:25;;;;;;;6.47;3.50;;;19.00;68.20;;;;;;5089087;28;20486;-68
2023/05/15 12:42:55;;;;;;;4.67;2.70;;;18.80;69.60;;;;;;5086176;28;20440;-68
2023/05/15 12:45:23;;;;;;;7.50;3.00;;;18.50;70.10;;;;;;5089100;28;20447;-68
2023/05/15 12:47:50;;;;;;;3.73;2.57;;;18.30;69.60;;;;;;5088735;28;20443;-67
2023/05/15 12:50:19;;;;;;;3.97;2.63;;;18.10;69.90;;;;;;5088559;28;20431;-68
2023/05/15 12:52:56;;;;;;;3.50;2.40;;;18.00;68.50;;;;;;5088169;28;20492;-67
2023/05/15 12:55:26;;;;;;;4.27;2.80;;;17.80;69.60;;;;;;5086123;28;20455;-67
2023/05/15 12:57:56;;;;;;;4.17;2.90;;;17.70;71.40;;;;;;5088799;28;21007;-68
2023/05/15 13:00:24;;;;;;;3.60;2.20;;;17.70;70.60;;;;;;5088274;28;20519;-67
2023/05/15 13:02:52;;;;;;;3.80;2.33;;;17.80;71.80;;;;;;5088450;28;20570;-67
2023/05/15 13:05:19;;;;;;;4.77;3.03;;;17.80;70.90;;;;;;5089229;28;20470;-68